Flight Track Log - Related Links

Times and Time Zones

All times are in EST time to prevent confusion due to time zone crossing. See the FIN666 flight status page for this flight to view local times or setup timezone preferences in your user account.

Time Position Orientation Groundspeed Altitude Reporting Facility
EST Latitude Longitude Course Direction KTS MPH feet Rate Location/Type
Mon 07:20:00 AM 55.8556 13.1474 49° Northeast  Level Estimated
Mon 07:21:00 AM 55.9343 13.3125 50° Northeast  Level Estimated
Mon 07:22:00 AM 56.0129 13.4784 50° Northeast  Level Estimated
Mon 07:23:00 AM 56.0912 13.6449 50° Northeast  Level Estimated
Mon 07:24:00 AM 56.1693 13.8120 50° Northeast  Level Estimated
Mon 07:25:00 AM 56.2472 13.9799 50° Northeast  Level Estimated
Mon 07:26:00 AM 56.3249 14.1484 50° Northeast  Level Estimated
Mon 07:27:00 AM 56.4023 14.3176 50° Northeast  Level Estimated
Mon 07:28:00 AM 56.4795 14.4875 51° Northeast  Level Estimated
Mon 07:29:00 AM 56.5564 14.6581 51° Northeast  Level Estimated
Mon 07:30:00 AM 56.6332 14.8294 51° Northeast  Level Estimated
Mon 07:31:00 AM 56.7097 15.0014 51° Northeast  Level Estimated
Mon 07:32:00 AM 56.7859 15.1741 51° Northeast  Level Estimated
Mon 07:33:00 AM 56.8619 15.3475 51° Northeast  Level Estimated
Mon 07:34:00 AM 56.9377 15.5216 51° Northeast  Level Estimated
Mon 07:35:00 AM 57.0132 15.6964 52° Northeast  Level Estimated
Mon 07:36:00 AM 57.0885 15.8719 52° Northeast  Level Estimated
Mon 07:37:00 AM 57.1647 16.0509 52° Northeast  Level Estimated
Mon 07:38:00 AM 57.2406 16.2306 52° Northeast  Level Estimated
Mon 07:39:00 AM 57.3163 16.4110 52° Northeast  Level Estimated
Mon 07:40:00 AM 57.3917 16.5921 52° Northeast  Level Estimated
Mon 07:41:00 AM 57.4669 16.7741 52° Northeast  Level Estimated
Mon 07:42:00 AM 57.5418 16.9567 53° Northeast  Level Estimated
Mon 07:43:00 AM 57.6164 17.1401 53° Northeast  Level Estimated
Mon 07:44:00 AM 57.6908 17.3243 53° Northeast  Level Estimated
Mon 07:45:00 AM 57.7649 17.5092 53° Northeast  Level Estimated
Mon 07:46:00 AM 57.8387 17.6949 53° Northeast  Level Estimated
Mon 07:47:00 AM 57.9122 17.8813 53° Northeast  Level Estimated
Mon 07:48:00 AM 57.9855 18.0685 54° Northeast  Level Estimated
Mon 07:49:00 AM 58.0585 18.2565 54° Northeast  Level Estimated
Mon 07:50:00 AM 58.1312 18.4452 54° Northeast  Level Estimated
Mon 07:51:00 AM 58.2037 18.6348 54° Northeast  Level Estimated
Mon 07:52:00 AM 58.2758 18.8250 54° Northeast  Level Estimated
Mon 07:53:00 AM 58.3477 19.0161 54° Northeast  Level Estimated
Mon 07:54:00 AM 58.4193 19.2079 54° Northeast  Level Estimated
Mon 07:55:00 AM 58.4906 19.4006 55° Northeast  Level Estimated
Mon 07:56:00 AM 58.5616 19.5940 55° Northeast  Level Estimated
Mon 07:57:00 AM 58.6323 19.7881 55° Northeast  Level Estimated
Mon 07:58:00 AM 58.7028 19.9831 55° Northeast  Level Estimated
Mon 07:59:00 AM 58.7729 20.1789 55° Northeast  Level Estimated
Mon 08:00:00 AM 58.8427 20.3754 55° Northeast  Level Estimated
Mon 08:01:00 AM 58.9123 20.5728 56° Northeast  Level Estimated
Mon 08:02:00 AM 58.9815 20.7709 56° Northeast  Level Estimated
Mon 08:03:00 AM 59.0504 20.9698 56° Northeast  Level Estimated
Mon 08:04:00 AM 59.1191 21.1695 56° Northeast  Level Estimated
Mon 08:05:00 AM 59.1874 21.3701 56° Northeast  Level Estimated
Mon 08:06:00 AM 59.2554 21.5714 56° Northeast  Level Estimated
Mon 08:07:00 AM 59.3231 21.7735 57° Northeast  Level Estimated
Mon 08:08:00 AM 59.3905 21.9765 57° Northeast  Level Estimated
Mon 08:09:00 AM 59.4575 22.1802 57° Northeast  Level Estimated
Mon 08:10:00 AM 59.5243 22.3848 57° Northeast  Level Estimated
Mon 08:11:00 AM 59.5907 22.5901 57° Northeast  Level Estimated
Mon 08:12:00 AM 59.6568 22.7963 58° Northeast  Level Estimated
Mon 08:13:00 AM 59.7226 23.0033 58° Northeast  Level Estimated
Mon 08:14:00 AM 59.7881 23.2111 58° Northeast  Level Estimated
Mon 08:15:00 AM 59.8532 23.4197 58° Northeast  Level Estimated
Mon 08:16:00 AM 59.9180 23.6291 58° Northeast  Level Estimated
Mon 08:17:00 AM 59.9824 23.8394 58° Northeast  Level Estimated
Mon 08:18:00 AM 60.0465 24.0504 59° Northeast  Level Estimated
Mon 08:19:00 AM 60.1103 24.2623 59° Northeast  Level Estimated
Mon 08:20:00 AM 60.1738 24.4750 59° Northeast  Level Estimated
Mon 08:21:00 AM 60.2369 24.6886 59° Northeast  Level Estimated
Mon 08:22:00 AM 60.2996 24.9029 59° Northeast  Level Estimated
Mon 08:23:00 AM 60.3172 24.9633 60° Northeast  Level Estimated
Mon 08:24:00 AM 60.3172 24.9633 37° Northeast  Level Estimated
Mon 08:25:00 AM 60.3172 24.9633 37° Northeast  Level Estimated
Mon 08:26:00 AM 60.3172 24.9633 37° Northeast  Level Estimated
Mon 08:27:00 AM 60.3172 24.9633 37° Northeast  Level Estimated
Mon 08:28:00 AM 60.3172 24.9633 37° Northeast  Level Estimated
Mon 08:29:00 AM 60.3172 24.9633 37° Northeast  Level Estimated
Mon 08:30:00 AM 60.3172 24.9633 37° Northeast  Level Estimated
Mon 08:31:00 AM 60.3172 24.9633 37° Northeast  Level Estimated
Mon 08:32:00 AM 60.3172 24.9633 37° Northeast  Level Estimated
Mon 08:33:00 AM 60.3172 24.9633 37° Northeast  Level Estimated
Mon 08:34:00 AM 60.3172 24.9633 37° Northeast  Level Estimated

Login

Don't have an account? Register now (free) for customized features, flight alerts, and more!